Time;durP1;ratioP1;P1;durP2;ratioP2;P2;SDS_P1;SDS_P2;PMS_P1;PMS_P2;Temp;Humidity;BMP_temperature;BMP_pressure;BME280_temperature;BME280_humidity;BME280_pressure;Samples;Min_cycle;Max_cycle;Signal;HPM_P1;HPM_P2
2022/11/29 00:00:59;;;;;;;16.27;10.55;;;;;;;;;;5013235;28;20061;-81
2022/11/29 00:03:25;;;;;;;16.45;10.05;;;;;;;;;;5013404;28;20426;-81
2022/11/29 00:05:50;;;;;;;15.63;9.82;;;;;;;;;;5014074;28;20469;-81
2022/11/29 00:08:17;;;;;;;15.77;9.98;;;;;;;;;;5014551;28;20026;-81
2022/11/29 00:10:42;;;;;;;19.40;10.75;;;;;;;;;;5013471;28;20030;-81
2022/11/29 00:13:08;;;;;;;20.65;10.75;;;;;;;;;;5013286;28;20040;-81
2022/11/29 00:15:37;;;;;;;19.45;10.48;;;;;;;;;;5014505;28;20034;-80
2022/11/29 00:18:03;;;;;;;15.85;10.00;;;;;;;;;;5012929;28;20543;-80
2022/11/29 00:20:29;;;;;;;19.20;10.88;;;;;;;;;;5014119;28;20018;-81
2022/11/29 00:22:54;;;;;;;16.55;10.02;;;;;;;;;;5014052;28;20038;-81
2022/11/29 00:25:19;;;;;;;18.98;10.48;;;;;;;;;;5012668;28;20040;-81
2022/11/29 00:27:45;;;;;;;16.80;9.82;;;;;;;;;;5029225;28;20065;-82
2022/11/29 00:30:11;;;;;;;17.75;11.15;;;;;;;;;;4996385;28;20473;-81
2022/11/29 00:32:36;;;;;;;18.52;11.48;;;;;;;;;;5013944;28;20037;-81
2022/11/29 00:35:02;;;;;;;18.30;10.85;;;;;;;;;;5028858;28;20030;-81
2022/11/29 00:37:27;;;;;;;18.50;10.70;;;;;;;;;;5012886;28;20091;-80
2022/11/29 00:39:53;;;;;;;18.65;11.10;;;;;;;;;;5014055;28;20409;-81
2022/11/29 00:42:19;;;;;;;18.20;10.77;;;;;;;;;;5028742;28;20042;-82
2022/11/29 00:44:44;;;;;;;20.25;10.98;;;;;;;;;;5012527;28;20411;-81
2022/11/29 00:47:10;;;;;;;21.35;10.88;;;;;;;;;;5012637;28;20037;-80
2022/11/29 00:49:35;;;;;;;18.55;10.95;;;;;;;;;;5013615;28;20459;-81
2022/11/29 00:52:01;;;;;;;16.25;10.52;;;;;;;;;;5012200;28;20037;-80
2022/11/29 00:54:26;;;;;;;19.48;10.98;;;;;;;;;;5014051;28;20121;-81
2022/11/29 00:56:51;;;;;;;19.63;11.00;;;;;;;;;;5012215;28;20045;-81
2022/11/29 00:59:17;;;;;;;20.70;11.20;;;;;;;;;;5013438;28;20033;-81
2022/11/29 01:01:42;;;;;;;21.65;11.82;;;;;;;;;;5013651;28;20497;-81
2022/11/29 01:04:07;;;;;;;20.63;11.40;;;;;;;;;;5012255;28;20060;-81
2022/11/29 01:06:33;;;;;;;17.73;11.07;;;;;;;;;;5013418;28;20057;-81
2022/11/29 01:08:58;;;;;;;22.65;11.55;;;;;;;;;;5012298;28;20116;-81
2022/11/29 01:11:25;;;;;;;23.92;12.68;;;;;;;;;;4995469;28;20142;-81
2022/11/29 01:13:54;;;;;;;25.38;12.25;;;;;;;;;;5011938;28;20133;-81
2022/11/29 01:16:20;;;;;;;26.45;12.68;;;;;;;;;;5012158;28;20449;-81
2022/11/29 01:18:45;;;;;;;23.77;12.95;;;;;;;;;;5011788;28;20030;-81
2022/11/29 01:21:14;;;;;;;24.05;12.65;;;;;;;;;;4995439;28;20472;-81
2022/11/29 01:23:39;;;;;;;25.65;12.70;;;;;;;;;;5011871;28;20030;-82
2022/11/29 01:26:11;;;;;;;23.55;12.52;;;;;;;;;;5011766;28;20072;-81
2022/11/29 01:28:38;;;;;;;21.05;12.43;;;;;;;;;;5012321;28;20123;-81
2022/11/29 01:31:10;;;;;;;21.38;11.93;;;;;;;;;;5027932;28;20051;-81
2022/11/29 01:33:36;;;;;;;22.92;11.85;;;;;;;;;;5011894;28;20583;-81
2022/11/29 01:36:02;;;;;;;22.83;12.25;;;;;;;;;;5011926;28;20052;-81
2022/11/29 01:38:28;;;;;;;19.83;12.18;;;;;;;;;;5011570;28;20030;-81
2022/11/29 01:40:59;;;;;;;24.90;12.73;;;;;;;;;;5012847;28;20037;-81
2022/11/29 01:43:25;;;;;;;21.23;12.73;;;;;;;;;;5011782;28;20022;-81
2022/11/29 01:45:50;;;;;;;21.13;12.73;;;;;;;;;;5012829;28;20496;-81
2022/11/29 01:48:16;;;;;;;23.85;13.07;;;;;;;;;;5012646;28;20491;-81
2022/11/29 01:50:42;;;;;;;21.02;12.48;;;;;;;;;;5012894;28;20038;-81
2022/11/29 01:53:10;;;;;;;18.70;11.98;;;;;;;;;;5013699;28;20154;-82
2022/11/29 01:55:37;;;;;;;24.05;13.20;;;;;;;;;;5016759;28;20042;-81
2022/11/29 01:58:05;;;;;;;22.48;13.52;;;;;;;;;;5015508;28;20044;-81
2022/11/29 02:00:31;;;;;;;30.40;13.30;;;;;;;;;;5015927;28;20034;-81
2022/11/29 02:03:02;;;;;;;25.15;13.38;;;;;;;;;;5016908;28;20357;-81
2022/11/29 02:05:28;;;;;;;23.02;13.38;;;;;;;;;;5015491;28;20428;-79
2022/11/29 02:07:55;;;;;;;25.42;12.95;;;;;;;;;;5015249;28;20034;-79
2022/11/29 02:10:29;;;;;;;24.17;13.45;;;;;;;;;;5015218;28;20026;-81
2022/11/29 02:13:19;;;;;;;21.25;12.00;;;;;;;;;;5015182;28;20083;-81
2022/11/29 02:15:44;;;;;;;20.42;12.43;;;;;;;;;;5016622;28;20060;-81
2022/11/29 02:18:16;;;;;;;21.00;12.95;;;;;;;;;;5015521;28;20464;-81
2022/11/29 02:20:52;;;;;;;22.55;13.15;;;;;;;;;;5015042;28;20489;-81
2022/11/29 02:23:32;;;;;;;23.65;13.57;;;;;;;;;;5016476;28;20062;-79
2022/11/29 02:26:13;;;;;;;18.63;12.38;;;;;;;;;;5016310;28;20030;-81
2022/11/29 02:29:02;;;;;;;20.13;12.50;;;;;;;;;;5014771;28;20125;-81
2022/11/29 02:31:37;;;;;;;19.33;12.23;;;;;;;;;;5014715;28;20040;-81
2022/11/29 02:34:05;;;;;;;20.23;12.68;;;;;;;;;;5014601;28;20064;-82
2022/11/29 02:36:45;;;;;;;27.67;14.00;;;;;;;;;;5016270;28;20037;-80
2022/11/29 02:39:37;;;;;;;21.67;13.32;;;;;;;;;;5014855;28;20029;-80
2022/11/29 02:42:26;;;;;;;22.23;13.07;;;;;;;;;;5014917;28;20022;-80
2022/11/29 02:45:09;;;;;;;24.17;13.70;;;;;;;;;;5014449;28;20113;-81
2022/11/29 02:47:53;;;;;;;23.30;13.50;;;;;;;;;;5014539;28;20041;-82
2022/11/29 02:50:40;;;;;;;20.92;12.43;;;;;;;;;;5015466;28;20042;-80
2022/11/29 02:53:05;;;;;;;23.35;13.07;;;;;;;;;;5014531;28;20045;-81
2022/11/29 02:55:52;;;;;;;24.60;13.23;;;;;;;;;;5015787;28;20026;-82
2022/11/29 02:58:32;;;;;;;21.83;13.00;;;;;;;;;;5014365;28;20041;-82
2022/11/29 03:01:22;;;;;;;20.17;12.80;;;;;;;;;;5014556;28;20030;-80
2022/11/29 03:04:04;;;;;;;23.30;13.35;;;;;;;;;;5013895;28;20026;-81
2022/11/29 03:06:53;;;;;;;23.00;13.02;;;;;;;;;;5013762;28;20026;-81
2022/11/29 03:09:38;;;;;;;21.98;12.77;;;;;;;;;;5014149;28;20087;-81
2022/11/29 03:12:30;;;;;;;20.77;12.70;;;;;;;;;;5015381;28;20032;-81
2022/11/29 03:14:58;;;;;;;25.52;12.98;;;;;;;;;;5014526;28;20460;-81
2022/11/29 03:17:49;;;;;;;20.98;12.75;;;;;;;;;;5013969;28;20062;-81
2022/11/29 03:20:37;;;;;;;21.70;12.65;;;;;;;;;;5013876;28;20160;-82
2022/11/29 03:23:22;;;;;;;21.58;12.93;;;;;;;;;;5014155;28;20396;-81
2022/11/29 03:25:56;;;;;;;18.67;12.25;;;;;;;;;;5015378;28;20034;-81
2022/11/29 03:28:28;;;;;;;23.05;13.13;;;;;;;;;;5013774;28;20032;-81
2022/11/29 03:31:18;;;;;;;22.20;12.32;;;;;;;;;;5014943;28;20033;-81
2022/11/29 03:33:56;;;;;;;20.40;12.20;;;;;;;;;;5013837;28;20072;-81
2022/11/29 03:36:35;;;;;;;22.73;11.52;;;;;;;;;;5015163;28;20029;-81
2022/11/29 03:39:05;;;;;;;20.33;12.55;;;;;;;;;;5013792;28;20159;-81
2022/11/29 03:41:38;;;;;;;21.98;12.77;;;;;;;;;;5013795;28;20124;-81
2022/11/29 03:44:24;;;;;;;21.52;11.98;;;;;;;;;;5014854;28;20037;-81
2022/11/29 03:47:03;;;;;;;20.10;12.40;;;;;;;;;;5013384;28;20036;-81
2022/11/29 03:49:50;;;;;;;20.70;12.60;;;;;;;;;;5014572;28;20451;-81
2022/11/29 03:52:48;;;;;;;19.17;12.10;;;;;;;;;;5013234;28;20025;-80
2022/11/29 03:55:31;;;;;;;21.98;12.50;;;;;;;;;;4981780;28;20049;-81
2022/11/29 03:58:22;;;;;;;18.40;11.48;;;;;;;;;;5013148;28;20022;-81
2022/11/29 04:00:47;;;;;;;19.60;11.90;;;;;;;;;;5014394;28;20080;-81
2022/11/29 04:03:21;;;;;;;21.95;12.43;;;;;;;;;;5014314;28;20033;-81
2022/11/29 04:06:05;;;;;;;18.33;11.60;;;;;;;;;;5014788;28;20034;-82
2022/11/29 04:09:09;;;;;;;19.13;11.43;;;;;;;;;;5012839;28;20038;-82
2022/11/29 04:12:16;;;;;;;17.95;11.77;;;;;;;;;;5012883;28;20029;-82
2022/11/29 04:14:59;;;;;;;19.10;11.43;;;;;;;;;;4953715;29;20370;-82
2022/11/29 04:17:52;;;;;;;18.08;11.75;;;;;;;;;;5008846;28;20060;-81
2022/11/29 04:20:51;;;;;;;17.17;10.57;;;;;;;;;;5014288;28;20021;-81
2022/11/29 04:23:48;;;;;;;18.17;11.07;;;;;;;;;;5014262;28;20032;-81
2022/11/29 04:26:28;;;;;;;17.55;11.05;;;;;;;;;;5014270;28;20036;-81
2022/11/29 04:29:16;;;;;;;17.52;11.30;;;;;;;;;;5012781;28;20060;-81
2022/11/29 04:32:01;;;;;;;17.55;11.68;;;;;;;;;;5013974;28;20033;-81
2022/11/29 04:34:51;;;;;;;18.65;11.02;;;;;;;;;;5014057;28;20108;-81
2022/11/29 04:37:52;;;;;;;16.73;11.13;;;;;;;;;;5013701;28;20484;-81
2022/11/29 04:40:32;;;;;;;16.08;10.77;;;;;;;;;;5012500;28;20030;-81
2022/11/29 04:43:34;;;;;;;18.10;10.73;;;;;;;;;;5013901;28;20025;-79
2022/11/29 04:46:12;;;;;;;17.02;10.95;;;;;;;;;;5013720;28;20392;-80
2022/11/29 04:48:50;;;;;;;17.42;10.40;;;;;;;;;;5013568;28;20100;-80
2022/11/29 04:51:34;;;;;;;15.40;10.43;;;;;;;;;;5012539;28;20076;-81
2022/11/29 04:54:14;;;;;;;17.92;10.57;;;;;;;;;;5012557;28;20457;-80
2022/11/29 04:57:07;;;;;;;15.77;10.57;;;;;;;;;;5013458;28;20461;-80
2022/11/29 04:59:50;;;;;;;14.65;9.77;;;;;;;;;;5013385;28;20017;-80
2022/11/29 05:02:36;;;;;;;16.15;9.82;;;;;;;;;;5012558;28;20032;-81
2022/11/29 05:05:23;;;;;;;14.20;9.75;;;;;;;;;;5013026;28;20034;-80
2022/11/29 05:08:17;;;;;;;17.17;10.23;;;;;;;;;;5012696;28;20030;-81
2022/11/29 05:11:03;;;;;;;16.33;9.07;;;;;;;;;;4983046;28;20030;-83
2022/11/29 05:13:42;;;;;;;18.27;9.75;;;;;;;;;;5012988;28;20117;-82
2022/11/29 05:16:27;;;;;;;18.55;9.50;;;;;;;;;;5013535;28;20026;-82
2022/11/29 05:19:30;;;;;;;18.08;9.25;;;;;;;;;;5012920;28;20022;-82
2022/11/29 05:22:18;;;;;;;16.75;9.60;;;;;;;;;;5014094;28;20053;-80
2022/11/29 05:24:57;;;;;;;19.30;9.45;;;;;;;;;;5012925;28;20084;-81
2022/11/29 05:27:38;;;;;;;18.05;8.93;;;;;;;;;;5012087;28;20082;-80
2022/11/29 05:30:05;;;;;;;16.38;9.30;;;;;;;;;;5011823;28;20385;-80
2022/11/29 05:32:49;;;;;;;16.55;9.05;;;;;;;;;;5013257;28;20108;-79
2022/11/29 05:35:39;;;;;;;21.15;9.15;;;;;;;;;;5011835;28;20065;-80
2022/11/29 05:38:32;;;;;;;17.08;8.65;;;;;;;;;;5011667;28;20125;-79
2022/11/29 05:41:07;;;;;;;14.60;8.45;;;;;;;;;;5012964;28;20014;-80
2022/11/29 05:43:51;;;;;;;13.02;8.05;;;;;;;;;;5012890;28;20029;-80
2022/11/29 05:46:23;;;;;;;12.80;7.57;;;;;;;;;;5012479;28;20032;-80
2022/11/29 05:48:49;;;;;;;16.25;7.65;;;;;;;;;;5011472;28;20412;-79
2022/11/29 05:51:21;;;;;;;13.27;7.97;;;;;;;;;;5012786;28;20034;-84
2022/11/29 05:54:04;;;;;;;16.92;9.15;;;;;;;;;;5011642;28;20113;-81
2022/11/29 05:56:38;;;;;;;13.82;8.60;;;;;;;;;;5012755;28;20030;-80
2022/11/29 05:59:10;;;;;;;17.02;9.60;;;;;;;;;;5012677;28;20026;-82
2022/11/29 06:02:03;;;;;;;56.25;15.98;;;;;;;;;;5011337;28;20018;-80
2022/11/29 06:04:54;;;;;;;42.38;12.82;;;;;;;;;;5012785;28;20037;-81
2022/11/29 06:08:18;;;;;;;40.35;13.02;;;;;;;;;;5012973;28;20030;-81
2022/11/29 06:11:19;;;;;;;41.88;13.20;;;;;;;;;;4994657;28;20045;-81
2022/11/29 06:14:13;;;;;;;36.15;11.48;;;;;;;;;;4986598;28;20132;-80
2022/11/29 06:17:00;;;;;;;32.92;11.75;;;;;;;;;;5011790;28;20064;-81
2022/11/29 06:19:47;;;;;;;39.28;10.85;;;;;;;;;;5011962;28;20079;-81
2022/11/29 06:22:26;;;;;;;40.38;11.70;;;;;;;;;;5011960;28;20029;-81
2022/11/29 06:25:15;;;;;;;28.90;10.07;;;;;;;;;;5012065;28;20029;-81
2022/11/29 06:27:44;;;;;;;31.17;9.57;;;;;;;;;;5013484;28;20419;-82
2022/11/29 06:30:12;;;;;;;32.55;8.82;;;;;;;;;;5012447;28;20026;-81
2022/11/29 06:33:06;;;;;;;25.52;9.65;;;;;;;;;;5011914;28;20038;-81
2022/11/29 06:35:44;;;;;;;21.23;8.88;;;;;;;;;;5012039;28;20029;-81
2022/11/29 06:38:20;;;;;;;24.02;9.02;;;;;;;;;;5011620;28;20092;-81
2022/11/29 06:40:47;;;;;;;15.55;8.00;;;;;;;;;;5015489;28;20049;-81
2022/11/29 06:43:13;;;;;;;18.98;7.85;;;;;;;;;;5016376;28;20026;-81
2022/11/29 06:45:42;;;;;;;20.13;7.80;;;;;;;;;;5017233;28;20488;-81
2022/11/29 06:48:08;;;;;;;24.13;7.97;;;;;;;;;;5016018;28;20029;-82
2022/11/29 06:51:06;;;;;;;19.08;7.40;;;;;;;;;;5016621;28;20054;-81
2022/11/29 06:54:14;;;;;;;14.65;7.35;;;;;;;;;;5015436;28;20030;-81
2022/11/29 06:56:40;;;;;;;21.60;7.18;;;;;;;;;;5007974;28;20032;-81
2022/11/29 06:59:45;;;;;;;17.30;6.85;;;;;;;;;;5016150;28;20022;-81
2022/11/29 07:02:27;;;;;;;13.95;7.00;;;;;;;;;;4986829;28;20065;-81
2022/11/29 07:05:30;;;;;;;11.88;6.43;;;;;;;;;;5016225;28;20029;-81
2022/11/29 07:08:00;;;;;;;13.27;6.57;;;;;;;;;;5017682;28;20029;-81
2022/11/29 07:10:26;;;;;;;9.50;6.15;;;;;;;;;;5015868;28;20021;-80
2022/11/29 07:12:52;;;;;;;15.23;6.90;;;;;;;;;;5016468;28;20436;-81
2022/11/29 07:15:19;;;;;;;10.80;6.20;;;;;;;;;;5016378;28;20056;-81
2022/11/29 07:18:16;;;;;;;10.95;6.00;;;;;;;;;;5018650;28;20436;-82
2022/11/29 07:20:47;;;;;;;15.73;7.15;;;;;;;;;;5016114;28;20017;-81
2022/11/29 07:23:41;;;;;;;12.60;6.00;;;;;;;;;;5015121;28;20025;-81
2022/11/29 07:26:20;;;;;;;10.05;5.93;;;;;;;;;;5031019;28;20029;-82
2022/11/29 07:28:48;;;;;;;11.05;5.68;;;;;;;;;;5016258;28;20022;-81
2022/11/29 07:31:36;;;;;;;9.50;5.20;;;;;;;;;;5015775;28;20105;-81
2022/11/29 07:34:04;;;;;;;10.63;5.70;;;;;;;;;;5014279;28;20108;-81
2022/11/29 07:37:02;;;;;;;9.45;5.50;;;;;;;;;;5014324;28;20501;-81
2022/11/29 07:39:52;;;;;;;11.88;5.45;;;;;;;;;;5014364;28;20060;-81
2022/11/29 07:42:40;;;;;;;8.00;5.20;;;;;;;;;;5014307;28;20407;-80
2022/11/29 07:45:17;;;;;;;10.57;5.65;;;;;;;;;;5014582;28;20027;-81
2022/11/29 07:47:42;;;;;;;8.27;5.45;;;;;;;;;;5014207;28;20440;-81
2022/11/29 07:50:12;;;;;;;10.85;5.78;;;;;;;;;;5013522;28;20057;-81
2022/11/29 07:52:37;;;;;;;9.85;5.40;;;;;;;;;;5013627;28;20257;-82
2022/11/29 07:55:03;;;;;;;8.60;5.45;;;;;;;;;;5015550;28;20108;-81
2022/11/29 07:57:29;;;;;;;8.70;5.03;;;;;;;;;;5014619;28;20040;-81
2022/11/29 07:59:54;;;;;;;8.85;4.97;;;;;;;;;;4997970;28;20038;-81
2022/11/29 08:02:29;;;;;;;9.20;4.82;;;;;;;;;;5015421;28;20022;-81
2022/11/29 08:04:55;;;;;;;11.43;5.78;;;;;;;;;;5030329;28;20034;-81
2022/11/29 08:07:21;;;;;;;8.52;4.90;;;;;;;;;;5014997;28;20370;-81
2022/11/29 08:09:46;;;;;;;9.48;5.72;;;;;;;;;;5015336;28;20026;-81
2022/11/29 08:12:11;;;;;;;8.73;5.03;;;;;;;;;;5015000;28;20075;-81
2022/11/29 08:14:37;;;;;;;10.50;5.38;;;;;;;;;;5014990;28;20037;-81
2022/11/29 08:17:02;;;;;;;9.40;4.90;;;;;;;;;;5014974;28;20061;-81
2022/11/29 08:19:28;;;;;;;7.72;5.18;;;;;;;;;;5013892;28;20057;-81
2022/11/29 08:21:53;;;;;;;10.35;5.38;;;;;;;;;;5015156;28;20070;-81
2022/11/29 08:24:19;;;;;;;6.68;4.72;;;;;;;;;;5030032;28;20456;-81
2022/11/29 08:26:44;;;;;;;8.85;5.30;;;;;;;;;;5015066;28;20029;-81
2022/11/29 08:29:09;;;;;;;9.32;5.05;;;;;;;;;;5014719;28;20061;-80
2022/11/29 08:31:36;;;;;;;8.73;5.38;;;;;;;;;;5013079;28;20492;-80
2022/11/29 08:34:04;;;;;;;8.18;5.00;;;;;;;;;;5013293;28;20046;-79
2022/11/29 08:36:29;;;;;;;8.30;5.20;;;;;;;;;;5014610;28;20034;-81
2022/11/29 08:38:55;;;;;;;9.85;5.80;;;;;;;;;;5013442;28;20044;-81
2022/11/29 08:41:20;;;;;;;9.18;5.05;;;;;;;;;;5013328;28;20037;-80
2022/11/29 08:43:46;;;;;;;8.68;5.05;;;;;;;;;;5014415;28;20420;-80
2022/11/29 08:46:11;;;;;;;7.32;5.03;;;;;;;;;;5014005;28;20037;-81
2022/11/29 08:48:36;;;;;;;12.60;5.63;;;;;;;;;;5012986;28;20026;-80
2022/11/29 08:51:03;;;;;;;10.70;5.43;;;;;;;;;;5029501;28;20049;-81
2022/11/29 08:53:41;;;;;;;9.25;4.95;;;;;;;;;;5013092;28;20034;-80
2022/11/29 08:56:15;;;;;;;11.23;4.97;;;;;;;;;;5013405;28;20022;-80
2022/11/29 08:58:40;;;;;;;9.80;5.07;;;;;;;;;;5013447;28;20024;-82
2022/11/29 09:01:14;;;;;;;8.65;5.10;;;;;;;;;;5014502;28;20109;-82
2022/11/29 09:03:58;;;;;;;8.80;4.97;;;;;;;;;;5014047;28;20022;-81
2022/11/29 09:06:24;;;;;;;;;;;;;;;;;;5014822;28;20030;-80
2022/11/29 09:08:49;;;;;;;9.60;5.47;;;;;;;;;;4996349;28;19960;-81
2022/11/29 09:11:19;;;;;;;8.13;4.80;;;;;;;;;;5013850;28;20061;-82
2022/11/29 09:13:47;;;;;;;11.57;5.40;;;;;;;;;;5012963;28;20033;-81
2022/11/29 09:16:14;;;;;;;20.80;8.27;;;;;;;;;;5013026;28;20556;-82
2022/11/29 09:18:40;;;;;;;36.92;9.00;;;;;;;;;;5012767;28;20068;-80
2022/11/29 09:21:11;;;;;;;22.83;7.97;;;;;;;;;;5012041;28;20025;-80
2022/11/29 09:23:38;;;;;;;22.52;7.32;;;;;;;;;;5013450;28;20532;-79
2022/11/29 09:26:04;;;;;;;21.02;7.10;;;;;;;;;;5012236;28;20036;-80
2022/11/29 09:28:30;;;;;;;19.98;6.63;;;;;;;;;;5001072;28;20033;-80
2022/11/29 09:31:03;;;;;;;22.38;7.05;;;;;;;;;;4994513;28;20072;-80
2022/11/29 09:33:28;;;;;;;14.60;6.18;;;;;;;;;;4994222;28;20049;-81
2022/11/29 09:35:56;;;;;;;15.45;6.22;;;;;;;;;;5016156;28;20026;-81
2022/11/29 09:38:22;;;;;;;16.65;6.05;;;;;;;;;;5011525;28;20029;-81
2022/11/29 09:40:52;;;;;;;14.40;6.18;;;;;;;;;;5011859;28;20160;-81
2022/11/29 09:43:26;;;;;;;12.18;5.70;;;;;;;;;;5012087;28;20026;-82
2022/11/29 09:45:59;;;;;;;16.95;5.63;;;;;;;;;;5013060;28;20033;-81
2022/11/29 09:48:40;;;;;;;11.23;5.50;;;;;;;;;;5012622;28;20481;-81
2022/11/29 09:51:23;;;;;;;13.85;5.43;;;;;;;;;;5011758;28;20030;-81
2022/11/29 09:54:07;;;;;;;16.20;5.00;;;;;;;;;;5011806;28;20298;-80
2022/11/29 09:56:44;;;;;;;11.77;5.72;;;;;;;;;;5011611;28;20112;-82
2022/11/29 09:59:22;;;;;;;8.57;4.90;;;;;;;;;;5011673;28;20112;-80
2022/11/29 10:01:53;;;;;;;13.13;4.63;;;;;;;;;;5011706;28;20018;-80
2022/11/29 10:04:22;;;;;;;17.80;4.88;;;;;;;;;;5011897;28;20041;-79
2022/11/29 10:07:03;;;;;;;8.75;4.78;;;;;;;;;;5011416;28;20072;-79
2022/11/29 10:09:36;;;;;;;13.07;5.07;;;;;;;;;;5044495;28;20065;-80
2022/11/29 10:12:25;;;;;;;8.70;4.93;;;;;;;;;;5011824;28;20022;-80
2022/11/29 10:14:59;;;;;;;8.30;4.55;;;;;;;;;;5004111;28;20099;-80
2022/11/29 10:17:36;;;;;;;10.35;4.93;;;;;;;;;;5048366;28;20061;-80
2022/11/29 10:20:09;;;;;;;12.68;5.75;;;;;;;;;;5031983;28;20061;-80
2022/11/29 10:22:56;;;;;;;9.00;4.80;;;;;;;;;;5016608;28;20018;-79
2022/11/29 10:25:26;;;;;;;11.15;4.75;;;;;;;;;;5015402;28;20108;-80
2022/11/29 10:27:52;;;;;;;9.82;4.57;;;;;;;;;;4998234;28;20037;-79
2022/11/29 10:30:17;;;;;;;9.55;5.05;;;;;;;;;;5015164;28;20036;-80
2022/11/29 10:32:45;;;;;;;10.27;4.80;;;;;;;;;;5015189;28;20097;-80
2022/11/29 10:35:13;;;;;;;8.65;4.50;;;;;;;;;;5031652;28;20045;-80
2022/11/29 10:37:39;;;;;;;10.40;4.65;;;;;;;;;;5015946;28;20607;-81
2022/11/29 10:40:08;;;;;;;9.18;4.20;;;;;;;;;;5016176;28;20046;-80
2022/11/29 10:42:51;;;;;;;9.02;4.57;;;;;;;;;;5022739;28;20041;-80
2022/11/29 10:45:49;;;;;;;6.43;4.05;;;;;;;;;;5034991;28;20021;-80
2022/11/29 10:48:16;;;;;;;8.02;4.32;;;;;;;;;;4991444;28;20041;-81
2022/11/29 10:50:43;;;;;;;7.45;4.30;;;;;;;;;;5035352;28;20050;-81
2022/11/29 10:53:15;;;;;;;11.13;4.63;;;;;;;;;;5051200;28;20029;-81
2022/11/29 10:55:46;;;;;;;9.52;4.30;;;;;;;;;;5035814;28;20017;-82
2022/11/29 10:58:18;;;;;;;8.50;4.18;;;;;;;;;;5003822;28;20034;-82
2022/11/29 11:00:57;;;;;;;7.20;4.28;;;;;;;;;;4995693;28;20027;-81
2022/11/29 11:03:41;;;;;;;7.38;4.30;;;;;;;;;;5023534;28;20052;-82
2022/11/29 11:06:16;;;;;;;7.82;3.65;;;;;;;;;;5024551;28;20472;-82
2022/11/29 11:08:47;;;;;;;8.35;4.55;;;;;;;;;;5035144;28;20032;-82
2022/11/29 11:11:14;;;;;;;7.53;3.90;;;;;;;;;;5050825;28;20053;-82
2022/11/29 11:13:40;;;;;;;7.43;4.03;;;;;;;;;;5050836;28;20476;-82
2022/11/29 11:16:17;;;;;;;8.68;3.70;;;;;;;;;;5035710;28;20025;-81
2022/11/29 11:18:43;;;;;;;8.40;3.95;;;;;;;;;;5034982;28;20500;-79
2022/11/29 11:21:14;;;;;;;7.40;4.22;;;;;;;;;;5034102;28;20018;-81
2022/11/29 11:23:58;;;;;;;6.18;3.45;;;;;;;;;;5050527;28;20496;-81
2022/11/29 11:26:24;;;;;;;6.03;3.67;;;;;;;;;;5047289;28;20071;-82
2022/11/29 11:28:59;;;;;;;10.10;4.10;;;;;;;;;;4994210;28;20027;-82
2022/11/29 11:31:51;;;;;;;6.13;3.45;;;;;;;;;;4994785;28;20030;-82
2022/11/29 11:34:35;;;;;;;7.43;3.88;;;;;;;;;;4988173;28;20042;-82
2022/11/29 11:37:25;;;;;;;10.77;4.05;;;;;;;;;;4995538;28;20034;-82
2022/11/29 11:39:54;;;;;;;7.85;4.13;;;;;;;;;;4996677;28;20454;-80
2022/11/29 11:42:36;;;;;;;8.05;4.40;;;;;;;;;;4996055;28;20393;-83
2022/11/29 11:45:32;;;;;;;7.93;4.47;;;;;;;;;;4994911;28;20029;-81
2022/11/29 11:48:04;;;;;;;9.23;3.97;;;;;;;;;;4995191;28;20109;-82
2022/11/29 11:50:31;;;;;;;6.70;3.60;;;;;;;;;;4995031;28;20050;-82
2022/11/29 11:53:18;;;;;;;9.45;4.28;;;;;;;;;;4996748;28;20115;-83
2022/11/29 11:56:14;;;;;;;7.50;3.88;;;;;;;;;;4994601;28;20029;-82
2022/11/29 11:58:43;;;;;;;6.03;3.90;;;;;;;;;;4994553;28;20030;-83
2022/11/29 12:01:11;;;;;;;13.10;4.22;;;;;;;;;;4995890;28;20027;-83
2022/11/29 12:03:57;;;;;;;11.77;3.88;;;;;;;;;;4995848;28;20114;-82
2022/11/29 12:06:26;;;;;;;9.75;3.90;;;;;;;;;;4994755;28;20080;-82
2022/11/29 12:09:15;;;;;;;9.57;4.03;;;;;;;;;;4995884;28;20110;-83
2022/11/29 12:11:55;;;;;;;8.52;4.10;;;;;;;;;;4995701;28;20026;-83
2022/11/29 12:14:26;;;;;;;7.20;3.72;;;;;;;;;;4995736;28;20026;-83
2022/11/29 12:17:01;;;;;;;7.65;3.97;;;;;;;;;;5010501;28;20049;-83
2022/11/29 12:19:31;;;;;;;7.75;4.05;;;;;;;;;;4994192;28;20072;-82
2022/11/29 12:22:02;;;;;;;5.85;4.03;;;;;;;;;;4994584;28;20026;-82
2022/11/29 12:24:31;;;;;;;10.27;3.80;;;;;;;;;;4994366;28;20030;-81
2022/11/29 12:27:01;;;;;;;12.18;4.20;;;;;;;;;;4994530;28;20061;-81
2022/11/29 12:29:30;;;;;;;6.65;4.00;;;;;;;;;;4995150;28;20112;-82
2022/11/29 12:32:18;;;;;;;8.05;3.50;;;;;;;;;;5006340;28;20147;-80
2022/11/29 12:34:57;;;;;;;8.85;4.00;;;;;;;;;;5034779;28;20109;-79
2022/11/29 12:37:49;;;;;;;7.72;3.72;;;;;;;;;;5034367;28;20029;-80
2022/11/29 12:40:36;;;;;;;9.95;4.00;;;;;;;;;;5026302;28;20033;-80
2022/11/29 12:43:19;;;;;;;9.38;3.35;;;;;;;;;;5034640;28;20396;-80
2022/11/29 12:45:56;;;;;;;7.20;3.90;;;;;;;;;;5034484;28;20064;-80
2022/11/29 12:48:28;;;;;;;10.57;4.53;;;;;;;;;;5049824;28;20258;-79
2022/11/29 12:51:12;;;;;;;9.00;3.83;;;;;;;;;;5033742;28;20068;-79
2022/11/29 12:54:03;;;;;;;17.15;4.10;;;;;;;;;;5034080;28;20053;-80
2022/11/29 12:57:05;;;;;;;8.68;3.45;;;;;;;;;;5049282;28;20488;-80
2022/11/29 13:00:06;;;;;;;9.88;3.85;;;;;;;;;;5032662;28;20032;-81
2022/11/29 13:02:53;;;;;;;8.50;3.65;;;;;;;;;;5049546;28;20024;-81
2022/11/29 13:05:21;;;;;;;12.60;4.05;;;;;;;;;;5032703;28;20037;-82
2022/11/29 13:08:06;;;;;;;8.70;4.10;;;;;;;;;;5033821;28;20036;-81
2022/11/29 13:10:57;;;;;;;24.60;4.05;;;;;;;;;;5034068;28;20035;-83
2022/11/29 13:13:28;;;;;;;6.53;3.35;;;;;;;;;;5033426;28;20100;-83
2022/11/29 13:16:30;;;;;;;12.23;3.78;;;;;;;;;;5049275;28;20028;-83
2022/11/29 13:19:16;;;;;;;10.85;3.72;;;;;;;;;;5033504;28;20083;-84
2022/11/29 13:21:57;;;;;;;8.80;3.70;;;;;;;;;;5048796;28;20028;-83
2022/11/29 13:24:39;;;;;;;10.40;3.88;;;;;;;;;;5048995;28;20029;-84
2022/11/29 13:27:05;;;;;;;10.35;3.97;;;;;;;;;;5048715;28;20032;-84
2022/11/29 13:29:30;;;;;;;6.70;3.70;;;;;;;;;;5048912;28;20037;-84
2022/11/29 13:31:56;;;;;;;11.20;3.90;;;;;;;;;;5048768;28;20129;-83
2022/11/29 13:34:30;;;;;;;10.90;3.72;;;;;;;;;;5015990;28;20033;-83
2022/11/29 13:36:56;;;;;;;7.68;3.60;;;;;;;;;;5049235;28;20025;-82
2022/11/29 13:39:43;;;;;;;7.65;3.38;;;;;;;;;;5033853;28;20029;-82
2022/11/29 13:42:20;;;;;;;9.35;3.78;;;;;;;;;;5034706;28;20079;-82
2022/11/29 13:45:12;;;;;;;7.22;3.88;;;;;;;;;;5032558;28;20029;-82
2022/11/29 13:47:49;;;;;;;8.07;3.22;;;;;;;;;;5025979;28;20103;-82
2022/11/29 13:50:38;;;;;;;8.93;3.80;;;;;;;;;;5049822;28;20547;-83
2022/11/29 13:53:23;;;;;;;7.30;3.85;;;;;;;;;;5035821;28;20468;-82
2022/11/29 13:55:59;;;;;;;6.93;3.47;;;;;;;;;;5052779;28;20190;-83
2022/11/29 13:58:28;;;;;;;7.40;3.65;;;;;;;;;;5051739;28;20124;-82
2022/11/29 14:01:13;;;;;;;7.03;3.70;;;;;;;;;;5036191;28;20096;-83
2022/11/29 14:03:44;;;;;;;9.10;3.63;;;;;;;;;;5017769;28;20451;-81
2022/11/29 14:06:13;;;;;;;7.93;3.63;;;;;;;;;;5050799;28;20091;-81
2022/11/29 14:09:05;;;;;;;7.88;3.80;;;;;;;;;;5051310;28;20032;-82
2022/11/29 14:11:47;;;;;;;12.32;4.10;;;;;;;;;;5049416;28;20511;-81
2022/11/29 14:14:15;;;;;;;48.60;4.93;;;;;;;;;;5035103;28;20495;-82
2022/11/29 14:16:41;;;;;;;7.75;4.38;;;;;;;;;;5035838;28;20029;-83
2022/11/29 14:19:09;;;;;;;9.18;4.28;;;;;;;;;;5036081;28;20052;-83
2022/11/29 14:22:05;;;;;;;9.43;3.80;;;;;;;;;;5039204;28;20025;-84
2022/11/29 14:24:31;;;;;;;10.93;4.10;;;;;;;;;;5040230;28;20030;-85
2022/11/29 14:27:05;;;;;;;6.80;3.72;;;;;;;;;;5040319;28;20104;-84
2022/11/29 14:29:49;;;;;;;8.45;3.50;;;;;;;;;;5035436;28;20056;-82
2022/11/29 14:32:51;;;;;;;7.68;4.13;;;;;;;;;;5036828;28;20067;-82
2022/11/29 14:35:28;;;;;;;8.38;3.65;;;;;;;;;;5036234;28;20132;-82
2022/11/29 14:38:10;;;;;;;8.68;3.50;;;;;;;;;;5032923;28;20028;-85
2022/11/29 14:40:41;;;;;;;7.13;3.72;;;;;;;;;;5048703;28;20048;-83
2022/11/29 14:43:18;;;;;;;10.45;4.38;;;;;;;;;;5033761;28;20438;-83
2022/11/29 14:45:44;;;;;;;8.18;3.53;;;;;;;;;;5032622;28;20021;-82
2022/11/29 14:48:26;;;;;;;11.30;4.10;;;;;;;;;;5033363;28;20458;-83
2022/11/29 14:51:06;;;;;;;8.63;3.72;;;;;;;;;;5033347;28;20513;-83
2022/11/29 14:53:33;;;;;;;8.40;3.63;;;;;;;;;;5049924;28;20091;-83
2022/11/29 14:56:27;;;;;;;10.68;3.72;;;;;;;;;;5049469;28;20049;-83
2022/11/29 14:59:30;;;;;;;8.90;3.95;;;;;;;;;;5034209;28;20396;-85
2022/11/29 15:02:00;;;;;;;8.30;3.60;;;;;;;;;;5037650;28;20018;-83
2022/11/29 15:04:25;;;;;;;13.75;4.53;;;;;;;;;;5052470;28;20036;-80
2022/11/29 15:06:54;;;;;;;11.93;3.60;;;;;;;;;;5052711;28;20395;-83
2022/11/29 15:09:22;;;;;;;18.50;3.92;;;;;;;;;;5037912;28;20029;-83
2022/11/29 15:11:57;;;;;;;12.10;4.63;;;;;;;;;;5052977;28;20045;-84
2022/11/29 15:14:27;;;;;;;8.88;4.40;;;;;;;;;;5052634;28;20021;-83
2022/11/29 15:17:25;;;;;;;8.57;3.92;;;;;;;;;;5031812;28;20385;-84
2022/11/29 15:20:02;;;;;;;19.20;4.82;;;;;;;;;;5029728;28;20076;-83
2022/11/29 15:22:37;;;;;;;10.68;4.53;;;;;;;;;;5045679;28;20032;-83
2022/11/29 15:25:17;;;;;;;11.55;4.65;;;;;;;;;;5030256;28;20071;-83